sensor_id;sensor_type;location;lat;lon;timestamp;temperature;humidity
32027;DHT22;18543;50.848;4.596;2022-11-15T00:00:52;16.90;62.60
32027;DHT22;18543;50.848;4.596;2022-11-15T00:03:26;16.90;62.60
32027;DHT22;18543;50.848;4.596;2022-11-15T00:05:54;16.90;62.70
32027;DHT22;18543;50.848;4.596;2022-11-15T00:08:21;16.90;62.70
32027;DHT22;18543;50.848;4.596;2022-11-15T00:10:58;16.90;62.70
32027;DHT22;18543;50.848;4.596;2022-11-15T00:13:25;16.90;62.70
32027;DHT22;18543;50.848;4.596;2022-11-15T00:15:52;16.90;62.70
32027;DHT22;18543;50.848;4.596;2022-11-15T00:18:22;16.90;62.70
32027;DHT22;18543;50.848;4.596;2022-11-15T00:20:49;16.90;62.80
32027;DHT22;18543;50.848;4.596;2022-11-15T00:23:16;16.90;62.80
32027;DHT22;18543;50.848;4.596;2022-11-15T00:25:43;16.90;62.80
32027;DHT22;18543;50.848;4.596;2022-11-15T00:28:10;16.90;62.80
32027;DHT22;18543;50.848;4.596;2022-11-15T00:30:37;16.90;62.80
32027;DHT22;18543;50.848;4.596;2022-11-15T00:33:04;16.90;62.90
32027;DHT22;18543;50.848;4.596;2022-11-15T00:35:32;16.80;62.80
32027;DHT22;18543;50.848;4.596;2022-11-15T00:38:00;16.80;62.80
32027;DHT22;18543;50.848;4.596;2022-11-15T00:40:27;16.80;62.80
32027;DHT22;18543;50.848;4.596;2022-11-15T00:42:53;16.80;62.90
32027;DHT22;18543;50.848;4.596;2022-11-15T00:45:20;16.80;62.90
32027;DHT22;18543;50.848;4.596;2022-11-15T00:47:47;16.90;63.00
32027;DHT22;18543;50.848;4.596;2022-11-15T00:50:14;16.80;62.90
32027;DHT22;18543;50.848;4.596;2022-11-15T00:52:41;16.80;62.90
32027;DHT22;18543;50.848;4.596;2022-11-15T00:55:16;16.80;63.00
32027;DHT22;18543;50.848;4.596;2022-11-15T00:57:43;16.80;63.00
32027;DHT22;18543;50.848;4.596;2022-11-15T01:00:11;16.90;63.00
32027;DHT22;18543;50.848;4.596;2022-11-15T01:02:38;16.90;63.10
32027;DHT22;18543;50.848;4.596;2022-11-15T01:05:06;16.80;63.00
32027;DHT22;18543;50.848;4.596;2022-11-15T01:07:33;16.90;63.10
32027;DHT22;18543;50.848;4.596;2022-11-15T01:10:02;16.90;63.20
32027;DHT22;18543;50.848;4.596;2022-11-15T01:12:29;16.90;63.20
32027;DHT22;18543;50.848;4.596;2022-11-15T01:14:56;16.80;63.10
32027;DHT22;18543;50.848;4.596;2022-11-15T01:17:23;16.80;63.10
32027;DHT22;18543;50.848;4.596;2022-11-15T01:19:50;16.80;63.10
32027;DHT22;18543;50.848;4.596;2022-11-15T01:22:17;16.80;63.10
32027;DHT22;18543;50.848;4.596;2022-11-15T01:24:44;16.80;63.10
32027;DHT22;18543;50.848;4.596;2022-11-15T01:27:10;16.90;63.80
32027;DHT22;18543;50.848;4.596;2022-11-15T01:29:37;16.80;63.20
32027;DHT22;18543;50.848;4.596;2022-11-15T01:32:04;16.90;63.20
32027;DHT22;18543;50.848;4.596;2022-11-15T01:34:31;16.80;63.20
32027;DHT22;18543;50.848;4.596;2022-11-15T01:36:57;16.90;63.30
32027;DHT22;18543;50.848;4.596;2022-11-15T01:39:25;16.90;63.30
32027;DHT22;18543;50.848;4.596;2022-11-15T01:41:52;16.90;63.40
32027;DHT22;18543;50.848;4.596;2022-11-15T01:44:43;16.80;63.90
32027;DHT22;18543;50.848;4.596;2022-11-15T01:52:19;16.90;63.40
32027;DHT22;18543;50.848;4.596;2022-11-15T01:54:50;16.80;63.40
32027;DHT22;18543;50.848;4.596;2022-11-15T01:57:18;16.80;63.40
32027;DHT22;18543;50.848;4.596;2022-11-15T01:59:48;16.80;63.40
32027;DHT22;18543;50.848;4.596;2022-11-15T02:02:15;16.80;63.40
32027;DHT22;18543;50.848;4.596;2022-11-15T02:04:46;16.80;63.40
32027;DHT22;18543;50.848;4.596;2022-11-15T02:07:17;16.80;63.50
32027;DHT22;18543;50.848;4.596;2022-11-15T02:09:45;16.80;63.50
32027;DHT22;18543;50.848;4.596;2022-11-15T02:12:14;16.80;63.50
32027;DHT22;18543;50.848;4.596;2022-11-15T02:14:48;16.80;63.50
32027;DHT22;18543;50.848;4.596;2022-11-15T02:20:42;16.80;63.60
32027;DHT22;18543;50.848;4.596;2022-11-15T02:26:36;16.80;63.60
32027;DHT22;18543;50.848;4.596;2022-11-15T02:29:09;16.80;63.90
32027;DHT22;18543;50.848;4.596;2022-11-15T02:32:13;16.80;63.70
32027;DHT22;18543;50.848;4.596;2022-11-15T02:35:02;16.80;63.70
32027;DHT22;18543;50.848;4.596;2022-11-15T02:37:53;16.80;63.70
32027;DHT22;18543;50.848;4.596;2022-11-15T02:43:20;16.80;63.70
32027;DHT22;18543;50.848;4.596;2022-11-15T02:46:22;16.80;63.80
32027;DHT22;18543;50.848;4.596;2022-11-15T02:49:11;16.80;63.80
32027;DHT22;18543;50.848;4.596;2022-11-15T02:51:40;16.80;63.80
32027;DHT22;18543;50.848;4.596;2022-11-15T02:54:15;16.80;63.80
32027;DHT22;18543;50.848;4.596;2022-11-15T02:56:44;16.80;63.80
32027;DHT22;18543;50.848;4.596;2022-11-15T03:04:53;16.80;64.00
32027;DHT22;18543;50.848;4.596;2022-11-15T03:07:29;16.80;64.50
32027;DHT22;18543;50.848;4.596;2022-11-15T03:10:05;16.80;63.90
32027;DHT22;18543;50.848;4.596;2022-11-15T03:12:45;16.80;64.00
32027;DHT22;18543;50.848;4.596;2022-11-15T03:15:25;16.80;64.00
32027;DHT22;18543;50.848;4.596;2022-11-15T03:18:00;16.70;64.00
32027;DHT22;18543;50.848;4.596;2022-11-15T03:20:28;16.70;64.00
32027;DHT22;18543;50.848;4.596;2022-11-15T03:22:58;16.80;64.10
32027;DHT22;18543;50.848;4.596;2022-11-15T03:25:28;16.70;64.00
32027;DHT22;18543;50.848;4.596;2022-11-15T03:27:59;16.80;64.00
32027;DHT22;18543;50.848;4.596;2022-11-15T03:30:31;16.80;64.10
32027;DHT22;18543;50.848;4.596;2022-11-15T03:33:00;16.80;64.10
32027;DHT22;18543;50.848;4.596;2022-11-15T03:35:32;16.70;64.00
32027;DHT22;18543;50.848;4.596;2022-11-15T03:38:08;16.80;64.10
32027;DHT22;18543;50.848;4.596;2022-11-15T03:40:40;16.80;64.10
32027;DHT22;18543;50.848;4.596;2022-11-15T03:46:02;16.80;64.20
32027;DHT22;18543;50.848;4.596;2022-11-15T03:48:35;16.80;64.20
32027;DHT22;18543;50.848;4.596;2022-11-15T03:51:03;16.70;64.10
32027;DHT22;18543;50.848;4.596;2022-11-15T03:53:30;16.70;64.20
32027;DHT22;18543;50.848;4.596;2022-11-15T03:55:58;16.80;64.20
32027;DHT22;18543;50.848;4.596;2022-11-15T03:58:25;16.70;64.20
32027;DHT22;18543;50.848;4.596;2022-11-15T04:00:52;16.80;64.20
32027;DHT22;18543;50.848;4.596;2022-11-15T04:03:18;16.70;64.20
32027;DHT22;18543;50.848;4.596;2022-11-15T04:05:45;16.70;64.30
32027;DHT22;18543;50.848;4.596;2022-11-15T04:08:12;16.80;64.30
32027;DHT22;18543;50.848;4.596;2022-11-15T04:10:39;16.70;64.30
32027;DHT22;18543;50.848;4.596;2022-11-15T04:13:05;16.80;64.90
32027;DHT22;18543;50.848;4.596;2022-11-15T04:15:32;16.80;64.40
32027;DHT22;18543;50.848;4.596;2022-11-15T04:17:59;16.70;64.30
32027;DHT22;18543;50.848;4.596;2022-11-15T04:20:29;16.80;64.40
32027;DHT22;18543;50.848;4.596;2022-11-15T04:23:20;16.70;64.30
32027;DHT22;18543;50.848;4.596;2022-11-15T04:26:09;16.80;64.40
32027;DHT22;18543;50.848;4.596;2022-11-15T04:28:37;16.80;64.40
32027;DHT22;18543;50.848;4.596;2022-11-15T04:31:27;16.80;64.40
32027;DHT22;18543;50.848;4.596;2022-11-15T04:33:54;16.70;64.30
32027;DHT22;18543;50.848;4.596;2022-11-15T04:36:22;16.70;64.30
32027;DHT22;18543;50.848;4.596;2022-11-15T04:39:07;16.80;64.40
32027;DHT22;18543;50.848;4.596;2022-11-15T04:41:34;16.80;64.40
32027;DHT22;18543;50.848;4.596;2022-11-15T04:44:01;16.80;64.40
32027;DHT22;18543;50.848;4.596;2022-11-15T04:46:28;16.80;64.40
32027;DHT22;18543;50.848;4.596;2022-11-15T04:48:55;16.80;64.40
32027;DHT22;18543;50.848;4.596;2022-11-15T04:51:25;16.80;64.40
32027;DHT22;18543;50.848;4.596;2022-11-15T04:53:52;16.80;64.40
32027;DHT22;18543;50.848;4.596;2022-11-15T04:56:19;16.80;64.40
32027;DHT22;18543;50.848;4.596;2022-11-15T04:58:48;16.80;64.40
32027;DHT22;18543;50.848;4.596;2022-11-15T05:01:16;16.80;64.40
32027;DHT22;18543;50.848;4.596;2022-11-15T05:03:43;16.80;64.40
32027;DHT22;18543;50.848;4.596;2022-11-15T05:06:29;16.80;64.40
32027;DHT22;18543;50.848;4.596;2022-11-15T05:08:57;16.80;64.40
32027;DHT22;18543;50.848;4.596;2022-11-15T05:11:24;16.90;64.40
32027;DHT22;18543;50.848;4.596;2022-11-15T05:13:51;16.80;64.40
32027;DHT22;18543;50.848;4.596;2022-11-15T05:16:20;16.90;64.40
32027;DHT22;18543;50.848;4.596;2022-11-15T05:18:50;16.80;64.30
32027;DHT22;18543;50.848;4.596;2022-11-15T05:21:17;16.90;64.40
32027;DHT22;18543;50.848;4.596;2022-11-15T05:23:44;16.90;64.40
32027;DHT22;18543;50.848;4.596;2022-11-15T05:26:11;16.90;64.40
32027;DHT22;18543;50.848;4.596;2022-11-15T05:28:38;16.90;64.40
32027;DHT22;18543;50.848;4.596;2022-11-15T05:31:24;16.90;64.40
32027;DHT22;18543;50.848;4.596;2022-11-15T05:33:51;16.90;64.40
32027;DHT22;18543;50.848;4.596;2022-11-15T05:36:36;16.90;64.40
32027;DHT22;18543;50.848;4.596;2022-11-15T05:39:06;16.90;64.40
32027;DHT22;18543;50.848;4.596;2022-11-15T05:41:45;16.90;64.40
32027;DHT22;18543;50.848;4.596;2022-11-15T05:44:17;16.90;64.30
32027;DHT22;18543;50.848;4.596;2022-11-15T05:46:44;16.90;64.30
32027;DHT22;18543;50.848;4.596;2022-11-15T05:49:15;16.90;64.80
32027;DHT22;18543;50.848;4.596;2022-11-15T05:51:43;16.90;64.30
32027;DHT22;18543;50.848;4.596;2022-11-15T05:54:11;16.90;64.20
32027;DHT22;18543;50.848;4.596;2022-11-15T05:56:38;16.90;64.20
32027;DHT22;18543;50.848;4.596;2022-11-15T05:59:05;16.90;64.10
32027;DHT22;18543;50.848;4.596;2022-11-15T06:01:33;16.90;64.10
32027;DHT22;18543;50.848;4.596;2022-11-15T06:04:00;17.00;64.10
32027;DHT22;18543;50.848;4.596;2022-11-15T06:06:28;17.00;64.00
32027;DHT22;18543;50.848;4.596;2022-11-15T06:08:55;17.00;64.00
32027;DHT22;18543;50.848;4.596;2022-11-15T06:11:22;17.00;64.00
32027;DHT22;18543;50.848;4.596;2022-11-15T06:13:49;17.00;63.90
32027;DHT22;18543;50.848;4.596;2022-11-15T06:16:16;17.10;63.90
32027;DHT22;18543;50.848;4.596;2022-11-15T06:18:42;17.10;63.90
32027;DHT22;18543;50.848;4.596;2022-11-15T06:21:09;17.10;63.80
32027;DHT22;18543;50.848;4.596;2022-11-15T06:23:38;17.00;63.70
32027;DHT22;18543;50.848;4.596;2022-11-15T06:26:05;17.10;63.80
32027;DHT22;18543;50.848;4.596;2022-11-15T06:28:32;17.10;63.80
32027;DHT22;18543;50.848;4.596;2022-11-15T06:31:04;17.10;63.70
32027;DHT22;18543;50.848;4.596;2022-11-15T06:33:31;17.10;63.70
32027;DHT22;18543;50.848;4.596;2022-11-15T06:36:03;17.10;63.70
32027;DHT22;18543;50.848;4.596;2022-11-15T06:38:30;17.10;63.60
32027;DHT22;18543;50.848;4.596;2022-11-15T06:41:06;17.10;63.60
32027;DHT22;18543;50.848;4.596;2022-11-15T06:43:34;17.10;63.70
32027;DHT22;18543;50.848;4.596;2022-11-15T06:46:02;17.10;63.70
32027;DHT22;18543;50.848;4.596;2022-11-15T06:48:30;17.10;63.60
32027;DHT22;18543;50.848;4.596;2022-11-15T06:50:59;17.20;63.70
32027;DHT22;18543;50.848;4.596;2022-11-15T06:53:27;17.20;63.60
32027;DHT22;18543;50.848;4.596;2022-11-15T06:56:05;17.20;63.60
32027;DHT22;18543;50.848;4.596;2022-11-15T06:58:32;17.20;63.60
32027;DHT22;18543;50.848;4.596;2022-11-15T07:01:05;17.20;63.50
32027;DHT22;18543;50.848;4.596;2022-11-15T07:03:34;17.20;63.70
32027;DHT22;18543;50.848;4.596;2022-11-15T07:06:04;17.20;63.50
32027;DHT22;18543;50.848;4.596;2022-11-15T07:08:34;17.20;63.60
32027;DHT22;18543;50.848;4.596;2022-11-15T07:11:03;17.20;63.60
32027;DHT22;18543;50.848;4.596;2022-11-15T07:13:31;17.20;63.60
32027;DHT22;18543;50.848;4.596;2022-11-15T07:16:06;17.20;63.50
32027;DHT22;18543;50.848;4.596;2022-11-15T07:18:37;17.30;63.60
32027;DHT22;18543;50.848;4.596;2022-11-15T07:21:07;17.20;63.50
32027;DHT22;18543;50.848;4.596;2022-11-15T07:23:39;17.30;63.60
32027;DHT22;18543;50.848;4.596;2022-11-15T07:26:07;17.30;63.50
32027;DHT22;18543;50.848;4.596;2022-11-15T07:28:35;17.30;63.50
32027;DHT22;18543;50.848;4.596;2022-11-15T07:31:07;17.30;63.50
32027;DHT22;18543;50.848;4.596;2022-11-15T07:33:34;17.30;63.40
32027;DHT22;18543;50.848;4.596;2022-11-15T07:36:03;17.30;63.40
32027;DHT22;18543;50.848;4.596;2022-11-15T07:38:31;17.30;63.40
32027;DHT22;18543;50.848;4.596;2022-11-15T07:41:04;17.30;63.40
32027;DHT22;18543;50.848;4.596;2022-11-15T07:43:31;17.30;63.40
32027;DHT22;18543;50.848;4.596;2022-11-15T07:46:05;17.30;63.50
32027;DHT22;18543;50.848;4.596;2022-11-15T07:48:34;17.30;63.70
32027;DHT22;18543;50.848;4.596;2022-11-15T07:51:15;17.20;64.40
32027;DHT22;18543;50.848;4.596;2022-11-15T07:53:43;17.20;64.50
32027;DHT22;18543;50.848;4.596;2022-11-15T07:56:10;17.20;64.40
32027;DHT22;18543;50.848;4.596;2022-11-15T07:58:38;17.20;64.30
32027;DHT22;18543;50.848;4.596;2022-11-15T08:01:06;17.20;64.30
32027;DHT22;18543;50.848;4.596;2022-11-15T08:03:34;17.20;64.10
32027;DHT22;18543;50.848;4.596;2022-11-15T08:06:01;17.20;64.00
32027;DHT22;18543;50.848;4.596;2022-11-15T08:08:31;17.20;64.00
32027;DHT22;18543;50.848;4.596;2022-11-15T08:10:59;17.30;64.00
32027;DHT22;18543;50.848;4.596;2022-11-15T08:13:26;17.30;64.00
32027;DHT22;18543;50.848;4.596;2022-11-15T08:16:00;17.30;63.90
32027;DHT22;18543;50.848;4.596;2022-11-15T08:18:28;17.30;63.80
32027;DHT22;18543;50.848;4.596;2022-11-15T08:20:59;17.30;63.80
32027;DHT22;18543;50.848;4.596;2022-11-15T08:23:27;17.30;63.90
32027;DHT22;18543;50.848;4.596;2022-11-15T08:26:00;17.40;63.90
32027;DHT22;18543;50.848;4.596;2022-11-15T08:28:30;17.40;63.90
32027;DHT22;18543;50.848;4.596;2022-11-15T08:30:57;17.40;63.90
32027;DHT22;18543;50.848;4.596;2022-11-15T08:33:25;17.40;63.80
32027;DHT22;18543;50.848;4.596;2022-11-15T08:35:52;17.40;63.80
32027;DHT22;18543;50.848;4.596;2022-11-15T08:38:19;17.40;63.80
32027;DHT22;18543;50.848;4.596;2022-11-15T08:40:46;17.40;63.80
32027;DHT22;18543;50.848;4.596;2022-11-15T08:43:12;17.40;63.90
32027;DHT22;18543;50.848;4.596;2022-11-15T08:45:39;17.40;63.90
32027;DHT22;18543;50.848;4.596;2022-11-15T08:48:06;17.40;63.80
32027;DHT22;18543;50.848;4.596;2022-11-15T08:50:34;17.40;63.80
32027;DHT22;18543;50.848;4.596;2022-11-15T08:53:05;17.40;63.70
32027;DHT22;18543;50.848;4.596;2022-11-15T08:55:36;17.40;63.80
32027;DHT22;18543;50.848;4.596;2022-11-15T08:58:03;17.40;63.80
32027;DHT22;18543;50.848;4.596;2022-11-15T09:00:30;17.40;63.80
32027;DHT22;18543;50.848;4.596;2022-11-15T09:02:58;17.40;63.70
32027;DHT22;18543;50.848;4.596;2022-11-15T09:05:26;17.40;63.80
32027;DHT22;18543;50.848;4.596;2022-11-15T09:07:54;17.40;63.80
32027;DHT22;18543;50.848;4.596;2022-11-15T09:10:22;17.40;63.70
32027;DHT22;18543;50.848;4.596;2022-11-15T09:12:49;17.50;63.90
32027;DHT22;18543;50.848;4.596;2022-11-15T09:15:17;17.40;64.00
32027;DHT22;18543;50.848;4.596;2022-11-15T09:17:44;17.50;64.00
32027;DHT22;18543;50.848;4.596;2022-11-15T09:20:11;17.50;64.00
32027;DHT22;18543;50.848;4.596;2022-11-15T09:22:38;17.50;63.90
32027;DHT22;18543;50.848;4.596;2022-11-15T09:25:06;17.50;63.70
32027;DHT22;18543;50.848;4.596;2022-11-15T09:27:36;17.50;63.70
32027;DHT22;18543;50.848;4.596;2022-11-15T09:30:04;17.50;63.80
32027;DHT22;18543;50.848;4.596;2022-11-15T09:32:31;17.50;63.70
32027;DHT22;18543;50.848;4.596;2022-11-15T09:35:04;17.60;63.80
32027;DHT22;18543;50.848;4.596;2022-11-15T09:37:32;17.60;63.70
32027;DHT22;18543;50.848;4.596;2022-11-15T09:39:58;17.70;63.80
32027;DHT22;18543;50.848;4.596;2022-11-15T09:42:47;17.70;63.70
32027;DHT22;18543;50.848;4.596;2022-11-15T09:50:48;17.70;63.80
32027;DHT22;18543;50.848;4.596;2022-11-15T09:53:49;17.70;63.30
32027;DHT22;18543;50.848;4.596;2022-11-15T09:56:41;17.50;63.40
32027;DHT22;18543;50.848;4.596;2022-11-15T10:04:36;17.30;64.30
32027;DHT22;18543;50.848;4.596;2022-11-15T10:09:41;17.30;64.40
32027;DHT22;18543;50.848;4.596;2022-11-15T10:12:09;17.40;64.40
32027;DHT22;18543;50.848;4.596;2022-11-15T10:14:39;17.40;64.40
32027;DHT22;18543;50.848;4.596;2022-11-15T10:17:34;17.40;64.30
32027;DHT22;18543;50.848;4.596;2022-11-15T10:20:27;17.40;64.30
32027;DHT22;18543;50.848;4.596;2022-11-15T10:23:05;17.40;64.30
32027;DHT22;18543;50.848;4.596;2022-11-15T10:25:34;17.40;64.40
32027;DHT22;18543;50.848;4.596;2022-11-15T10:30:39;17.40;64.40
32027;DHT22;18543;50.848;4.596;2022-11-15T10:33:35;17.40;64.40
32027;DHT22;18543;50.848;4.596;2022-11-15T10:36:22;17.40;64.40
32027;DHT22;18543;50.848;4.596;2022-11-15T10:41:31;17.40;64.40
32027;DHT22;18543;50.848;4.596;2022-11-15T10:46:39;17.40;64.50
32027;DHT22;18543;50.848;4.596;2022-11-15T10:51:50;17.40;64.50
32027;DHT22;18543;50.848;4.596;2022-11-15T10:54:34;17.40;64.50
32027;DHT22;18543;50.848;4.596;2022-11-15T10:57:14;17.40;64.20
32027;DHT22;18543;50.848;4.596;2022-11-15T10:59:47;17.40;64.10
32027;DHT22;18543;50.848;4.596;2022-11-15T11:02:32;17.40;64.10
32027;DHT22;18543;50.848;4.596;2022-11-15T11:05:02;17.40;64.00
32027;DHT22;18543;50.848;4.596;2022-11-15T11:07:34;17.40;63.90
32027;DHT22;18543;50.848;4.596;2022-11-15T11:10:20;17.40;63.70
32027;DHT22;18543;50.848;4.596;2022-11-15T11:13:15;17.30;63.90
32027;DHT22;18543;50.848;4.596;2022-11-15T11:19:36;17.30;64.10
32027;DHT22;18543;50.848;4.596;2022-11-15T11:22:18;17.30;64.20
32027;DHT22;18543;50.848;4.596;2022-11-15T11:25:13;17.30;64.20
32027;DHT22;18543;50.848;4.596;2022-11-15T11:35:55;17.30;64.20
32027;DHT22;18543;50.848;4.596;2022-11-15T11:44:18;17.20;64.50
32027;DHT22;18543;50.848;4.596;2022-11-15T11:47:12;17.20;64.60
32027;DHT22;18543;50.848;4.596;2022-11-15T11:55:40;17.30;64.20
32027;DHT22;18543;50.848;4.596;2022-11-15T12:00:55;17.10;64.50
32027;DHT22;18543;50.848;4.596;2022-11-15T12:03:40;17.10;65.00
32027;DHT22;18543;50.848;4.596;2022-11-15T12:06:33;17.20;64.90
32027;DHT22;18543;50.848;4.596;2022-11-15T12:09:12;17.20;65.00
32027;DHT22;18543;50.848;4.596;2022-11-15T12:14:33;17.30;64.80
32027;DHT22;18543;50.848;4.596;2022-11-15T12:17:00;17.30;64.70
32027;DHT22;18543;50.848;4.596;2022-11-15T12:19:29;17.30;64.70
32027;DHT22;18543;50.848;4.596;2022-11-15T12:21:59;17.40;64.90
32027;DHT22;18543;50.848;4.596;2022-11-15T12:27:16;17.20;64.40
32027;DHT22;18543;50.848;4.596;2022-11-15T12:29:54;17.20;64.90
32027;DHT22;18543;50.848;4.596;2022-11-15T12:34:55;17.20;65.10
32027;DHT22;18543;50.848;4.596;2022-11-15T12:45:31;17.20;65.10
32027;DHT22;18543;50.848;4.596;2022-11-15T12:51:04;17.20;65.10
32027;DHT22;18543;50.848;4.596;2022-11-15T12:53:33;17.30;65.20
32027;DHT22;18543;50.848;4.596;2022-11-15T13:06:55;17.30;65.20
32027;DHT22;18543;50.848;4.596;2022-11-15T13:17:49;17.30;65.20
32027;DHT22;18543;50.848;4.596;2022-11-15T13:22:49;17.30;65.30
32027;DHT22;18543;50.848;4.596;2022-11-15T13:30:51;17.30;65.80
32027;DHT22;18543;50.848;4.596;2022-11-15T13:33:34;17.30;65.20
32027;DHT22;18543;50.848;4.596;2022-11-15T13:36:06;17.30;65.20
32027;DHT22;18543;50.848;4.596;2022-11-15T13:38:37;17.30;65.20
32027;DHT22;18543;50.848;4.596;2022-11-15T13:41:21;17.30;65.20
32027;DHT22;18543;50.848;4.596;2022-11-15T13:43:51;17.40;65.30
32027;DHT22;18543;50.848;4.596;2022-11-15T13:46:22;17.40;65.30
32027;DHT22;18543;50.848;4.596;2022-11-15T13:49:00;17.40;65.30
32027;DHT22;18543;50.848;4.596;2022-11-15T13:51:54;17.30;65.30
32027;DHT22;18543;50.848;4.596;2022-11-15T13:54:32;17.40;65.30
32027;DHT22;18543;50.848;4.596;2022-11-15T13:57:05;17.40;65.30
32027;DHT22;18543;50.848;4.596;2022-11-15T13:59:43;17.40;65.30
32027;DHT22;18543;50.848;4.596;2022-11-15T14:02:20;17.40;65.40
32027;DHT22;18543;50.848;4.596;2022-11-15T14:04:57;17.30;65.30
32027;DHT22;18543;50.848;4.596;2022-11-15T14:07:26;17.30;65.40
32027;DHT22;18543;50.848;4.596;2022-11-15T14:09:54;17.30;65.40
32027;DHT22;18543;50.848;4.596;2022-11-15T14:12:33;17.30;65.40
32027;DHT22;18543;50.848;4.596;2022-11-15T14:15:19;17.30;65.40
32027;DHT22;18543;50.848;4.596;2022-11-15T14:17:49;17.40;65.50
32027;DHT22;18543;50.848;4.596;2022-11-15T14:20:38;17.40;65.50
32027;DHT22;18543;50.848;4.596;2022-11-15T14:23:27;17.40;65.50
32027;DHT22;18543;50.848;4.596;2022-11-15T14:25:56;17.40;65.50
32027;DHT22;18543;50.848;4.596;2022-11-15T14:30:52;17.40;65.50
32027;DHT22;18543;50.848;4.596;2022-11-15T14:35:52;17.40;65.60
32027;DHT22;18543;50.848;4.596;2022-11-15T14:38:19;17.40;65.60
32027;DHT22;18543;50.848;4.596;2022-11-15T14:40:46;17.40;65.60
32027;DHT22;18543;50.848;4.596;2022-11-15T14:43:13;17.40;65.50
32027;DHT22;18543;50.848;4.596;2022-11-15T14:45:41;17.40;65.60
32027;DHT22;18543;50.848;4.596;2022-11-15T14:48:08;17.40;65.60
32027;DHT22;18543;50.848;4.596;2022-11-15T14:50:35;17.40;65.60
32027;DHT22;18543;50.848;4.596;2022-11-15T14:53:03;17.40;65.60
32027;DHT22;18543;50.848;4.596;2022-11-15T14:55:34;17.40;65.60
32027;DHT22;18543;50.848;4.596;2022-11-15T14:58:03;17.40;65.60
32027;DHT22;18543;50.848;4.596;2022-11-15T15:00:31;17.40;65.60
32027;DHT22;18543;50.848;4.596;2022-11-15T15:03:01;17.40;65.70
32027;DHT22;18543;50.848;4.596;2022-11-15T15:05:41;17.40;66.20
32027;DHT22;18543;50.848;4.596;2022-11-15T15:08:08;17.40;66.80
32027;DHT22;18543;50.848;4.596;2022-11-15T15:10:37;17.40;66.90
32027;DHT22;18543;50.848;4.596;2022-11-15T15:13:22;17.40;67.00
32027;DHT22;18543;50.848;4.596;2022-11-15T15:15:50;17.40;67.10
32027;DHT22;18543;50.848;4.596;2022-11-15T15:18:18;17.40;67.70
32027;DHT22;18543;50.848;4.596;2022-11-15T15:20:58;17.40;66.90
32027;DHT22;18543;50.848;4.596;2022-11-15T15:23:33;17.40;67.00
32027;DHT22;18543;50.848;4.596;2022-11-15T15:26:02;17.40;67.00
32027;DHT22;18543;50.848;4.596;2022-11-15T15:28:29;17.40;67.00
32027;DHT22;18543;50.848;4.596;2022-11-15T15:31:03;17.30;66.90
32027;DHT22;18543;50.848;4.596;2022-11-15T15:33:30;17.40;67.00
32027;DHT22;18543;50.848;4.596;2022-11-15T15:35:59;17.40;67.00
32027;DHT22;18543;50.848;4.596;2022-11-15T15:38:26;17.30;67.00
32027;DHT22;18543;50.848;4.596;2022-11-15T15:40:53;17.40;67.20
32027;DHT22;18543;50.848;4.596;2022-11-15T15:43:20;17.40;67.00
32027;DHT22;18543;50.848;4.596;2022-11-15T15:45:47;17.40;67.00
32027;DHT22;18543;50.848;4.596;2022-11-15T15:48:16;17.30;67.00
32027;DHT22;18543;50.848;4.596;2022-11-15T15:50:43;17.40;67.10
32027;DHT22;18543;50.848;4.596;2022-11-15T15:53:11;17.40;67.40
32027;DHT22;18543;50.848;4.596;2022-11-15T15:55:39;17.40;68.40
32027;DHT22;18543;50.848;4.596;2022-11-15T15:58:06;17.40;69.00
32027;DHT22;18543;50.848;4.596;2022-11-15T16:00:36;17.40;68.70
32027;DHT22;18543;50.848;4.596;2022-11-15T16:03:03;17.40;68.80
32027;DHT22;18543;50.848;4.596;2022-11-15T16:05:30;17.40;68.60
32027;DHT22;18543;50.848;4.596;2022-11-15T16:07:57;17.40;68.60
32027;DHT22;18543;50.848;4.596;2022-11-15T16:10:26;17.40;69.00
32027;DHT22;18543;50.848;4.596;2022-11-15T16:12:54;17.40;68.90
32027;DHT22;18543;50.848;4.596;2022-11-15T16:15:23;17.40;68.70
32027;DHT22;18543;50.848;4.596;2022-11-15T16:17:56;17.40;68.70
32027;DHT22;18543;50.848;4.596;2022-11-15T16:20:29;17.40;68.70
32027;DHT22;18543;50.848;4.596;2022-11-15T16:22:56;17.40;68.60
32027;DHT22;18543;50.848;4.596;2022-11-15T16:25:23;17.40;68.60
32027;DHT22;18543;50.848;4.596;2022-11-15T16:27:51;17.30;68.60
32027;DHT22;18543;50.848;4.596;2022-11-15T16:30:20;17.30;68.60
32027;DHT22;18543;50.848;4.596;2022-11-15T16:32:48;17.30;68.60
32027;DHT22;18543;50.848;4.596;2022-11-15T16:35:16;17.30;68.60
32027;DHT22;18543;50.848;4.596;2022-11-15T16:37:43;17.30;68.60
32027;DHT22;18543;50.848;4.596;2022-11-15T16:40:30;17.30;68.60
32027;DHT22;18543;50.848;4.596;2022-11-15T16:42:58;17.30;68.60
32027;DHT22;18543;50.848;4.596;2022-11-15T16:45:26;17.30;68.60
32027;DHT22;18543;50.848;4.596;2022-11-15T16:47:55;17.30;68.60
32027;DHT22;18543;50.848;4.596;2022-11-15T16:50:26;17.30;68.60
32027;DHT22;18543;50.848;4.596;2022-11-15T16:52:54;17.30;68.50
32027;DHT22;18543;50.848;4.596;2022-11-15T16:55:23;17.30;68.50
32027;DHT22;18543;50.848;4.596;2022-11-15T16:57:51;17.30;68.60
32027;DHT22;18543;50.848;4.596;2022-11-15T17:00:19;17.30;68.50
32027;DHT22;18543;50.848;4.596;2022-11-15T17:02:47;17.30;68.50
32027;DHT22;18543;50.848;4.596;2022-11-15T17:05:19;17.30;69.10
32027;DHT22;18543;50.848;4.596;2022-11-15T17:07:48;17.30;68.50
32027;DHT22;18543;50.848;4.596;2022-11-15T17:10:16;17.30;68.50
32027;DHT22;18543;50.848;4.596;2022-11-15T17:12:43;17.30;68.50
32027;DHT22;18543;50.848;4.596;2022-11-15T17:15:11;17.30;68.50
32027;DHT22;18543;50.848;4.596;2022-11-15T17:17:39;17.30;68.40
32027;DHT22;18543;50.848;4.596;2022-11-15T17:20:08;17.30;68.40
32027;DHT22;18543;50.848;4.596;2022-11-15T17:22:39;17.30;68.40
32027;DHT22;18543;50.848;4.596;2022-11-15T17:25:06;17.30;68.50
32027;DHT22;18543;50.848;4.596;2022-11-15T17:27:32;17.30;68.50
32027;DHT22;18543;50.848;4.596;2022-11-15T17:29:59;17.30;68.50
32027;DHT22;18543;50.848;4.596;2022-11-15T17:32:26;17.30;68.50
32027;DHT22;18543;50.848;4.596;2022-11-15T17:34:53;17.30;68.50
32027;DHT22;18543;50.848;4.596;2022-11-15T17:37:20;17.30;68.50
32027;DHT22;18543;50.848;4.596;2022-11-15T17:39:47;17.30;68.40
32027;DHT22;18543;50.848;4.596;2022-11-15T17:42:13;17.30;68.40
32027;DHT22;18543;50.848;4.596;2022-11-15T17:44:40;17.30;68.40
32027;DHT22;18543;50.848;4.596;2022-11-15T17:47:07;17.30;68.40
32027;DHT22;18543;50.848;4.596;2022-11-15T17:49:34;17.30;68.50
32027;DHT22;18543;50.848;4.596;2022-11-15T17:52:06;17.30;68.50
32027;DHT22;18543;50.848;4.596;2022-11-15T17:54:33;17.30;68.50
32027;DHT22;18543;50.848;4.596;2022-11-15T17:57:00;17.30;68.60
32027;DHT22;18543;50.848;4.596;2022-11-15T17:59:27;17.30;69.10